createdAt,value
2023-04-14T00:01:18.370Z,10.70
2023-04-14T00:03:48.250Z,10.18
2023-04-14T00:06:19.037Z,12.88
2023-04-14T00:08:48.733Z,13.65
2023-04-14T00:11:18.454Z,16.10
2023-04-14T00:13:48.104Z,11.90
2023-04-14T00:16:17.756Z,12.02
2023-04-14T00:18:47.661Z,14.40
2023-04-14T00:21:17.853Z,14.15
2023-04-14T00:23:47.896Z,13.60
2023-04-14T00:26:17.650Z,14.45
2023-04-14T00:28:49.923Z,16.23
2023-04-14T00:31:20.110Z,17.45
2023-04-14T00:33:50.203Z,16.25
2023-04-14T00:36:20.688Z,18.85
2023-04-14T00:38:51.147Z,17.90
2023-04-14T00:41:21.160Z,18.27
2023-04-14T00:43:50.855Z,22.60
2023-04-14T00:46:20.889Z,22.38
2023-04-14T00:48:50.983Z,19.90
2023-04-14T00:51:21.036Z,23.75
2023-04-14T00:53:51.449Z,19.30
2023-04-14T00:56:21.094Z,20.38
2023-04-14T00:58:51.176Z,21.20
2023-04-14T01:01:20.901Z,19.23
2023-04-14T01:03:51.009Z,21.05
2023-04-14T01:06:21.754Z,21.52
2023-04-14T01:08:51.612Z,17.92
2023-04-14T01:11:34.975Z,20.73
2023-04-14T01:14:16.175Z,21.42
2023-04-14T01:16:47.159Z,22.65
2023-04-14T01:19:32.109Z,23.65
2023-04-14T01:22:07.691Z,19.85
2023-04-14T01:24:53.868Z,21.08
2023-04-14T01:27:29.169Z,18.65
2023-04-14T01:30:20.783Z,20.83
2023-04-14T01:32:53.386Z,18.40
2023-04-14T01:35:54.567Z,20.95
2023-04-14T01:38:37.568Z,30.10
2023-04-14T01:41:08.822Z,42.03
2023-04-14T01:43:42.342Z,32.13
2023-04-14T01:46:16.264Z,37.63
2023-04-14T01:48:50.455Z,37.30
2023-04-14T01:51:21.030Z,33.40
2023-04-14T01:53:51.816Z,32.45
2023-04-14T01:56:21.476Z,30.85
2023-04-14T01:58:54.287Z,29.98
2023-04-14T02:01:24.367Z,26.45
2023-04-14T02:03:54.944Z,23.85
2023-04-14T02:06:24.657Z,24.35
2023-04-14T02:08:54.299Z,22.20
2023-04-14T02:11:23.944Z,23.20
2023-04-14T02:13:53.624Z,20.90
2023-04-14T02:16:23.301Z,18.85
2023-04-14T02:18:52.973Z,18.20
2023-04-14T02:21:23.005Z,18.90
2023-04-14T02:23:53.163Z,18.08
2023-04-14T02:26:24.085Z,18.52
2023-04-14T02:29:12.407Z,18.42
2023-04-14T02:31:45.769Z,17.77
2023-04-14T02:34:15.925Z,15.18
2023-04-14T02:36:49.462Z,16.05
2023-04-14T02:39:42.927Z,17.05
2023-04-14T02:42:17.935Z,15.45
2023-04-14T02:44:52.152Z,16.40
2023-04-14T02:47:51.789Z,12.98
2023-04-14T02:50:22.123Z,13.13
2023-04-14T02:52:53.541Z,15.02
2023-04-14T02:55:23.249Z,15.10
2023-04-14T02:57:54.513Z,14.43
2023-04-14T03:00:28.007Z,16.25
2023-04-14T03:02:58.226Z,12.70
2023-04-14T03:05:27.939Z,14.68
2023-04-14T03:07:58.729Z,15.95
2023-04-14T03:10:29.229Z,13.38
2023-04-14T03:13:00.142Z,13.07
2023-04-14T03:15:30.531Z,12.43
2023-04-14T03:18:01.480Z,12.55
2023-04-14T03:20:32.954Z,12.23
2023-04-14T03:23:10.041Z,10.70
2023-04-14T03:25:39.760Z,9.45
2023-04-14T03:28:17.455Z,9.02
2023-04-14T03:30:50.515Z,9.55
2023-04-14T03:33:26.704Z,10.95
2023-04-14T03:35:57.294Z,11.40
2023-04-14T03:38:29.511Z,11.43
2023-04-14T03:41:03.088Z,11.15
2023-04-14T03:43:34.936Z,9.15
2023-04-14T03:46:06.856Z,10.15
2023-04-14T03:48:38.506Z,10.00
2023-04-14T03:51:10.779Z,11.15
2023-04-14T03:53:45.468Z,11.85
2023-04-14T03:56:16.898Z,11.43
2023-04-14T03:58:52.381Z,13.05
2023-04-14T04:03:51.094Z,9.07
2023-04-14T04:06:20.774Z,12.40
2023-04-14T04:08:53.448Z,12.27
2023-04-14T04:11:24.987Z,12.68
2023-04-14T04:13:54.740Z,12.80
2023-04-14T04:16:24.534Z,13.93
2023-04-14T04:18:55.556Z,14.38
2023-04-14T04:21:25.181Z,12.52
2023-04-14T04:23:57.977Z,10.45
2023-04-14T04:26:30.721Z,12.60
2023-04-14T04:29:00.743Z,11.68
2023-04-14T04:31:33.041Z,10.77
2023-04-14T04:34:05.271Z,10.93
2023-04-14T04:36:34.999Z,13.13
2023-04-14T04:39:05.024Z,10.30
2023-04-14T04:41:34.943Z,13.05
2023-04-14T04:44:05.381Z,12.20
2023-04-14T04:46:58.319Z,11.57
2023-04-14T04:49:28.061Z,10.05
2023-04-14T04:52:01.392Z,9.68
2023-04-14T04:54:31.178Z,11.05
2023-04-14T04:57:01.481Z,10.05
2023-04-14T04:59:31.926Z,11.80
2023-04-14T05:02:01.742Z,11.25
2023-04-14T05:04:31.535Z,10.75
2023-04-14T05:07:01.246Z,9.65
2023-04-14T05:09:31.749Z,11.85
2023-04-14T05:12:02.859Z,11.23
2023-04-14T05:14:32.504Z,13.77
2023-04-14T05:17:02.918Z,12.15
2023-04-14T05:19:35.610Z,11.48
2023-04-14T05:22:05.649Z,17.15
2023-04-14T05:24:35.371Z,19.27
2023-04-14T05:27:14.408Z,25.15
2023-04-14T05:29:44.900Z,16.85
2023-04-14T05:32:16.125Z,18.52
2023-04-14T05:34:49.491Z,13.02
2023-04-14T05:37:20.871Z,14.40
2023-04-14T05:39:50.952Z,11.30
2023-04-14T05:42:21.014Z,12.07
2023-04-14T05:44:50.726Z,10.15
2023-04-14T05:47:20.901Z,14.90
2023-04-14T05:49:50.552Z,9.23
2023-04-14T05:52:20.316Z,8.82
2023-04-14T05:54:50.670Z,9.23
2023-04-14T05:57:21.072Z,7.80
2023-04-14T05:59:50.819Z,7.90
2023-04-14T06:02:21.276Z,9.77
2023-04-14T06:04:51.689Z,9.40
2023-04-14T06:07:22.322Z,6.60
2023-04-14T06:09:53.207Z,7.30
2023-04-14T06:12:26.740Z,7.22
2023-04-14T06:14:57.105Z,5.50
2023-04-14T06:17:28.015Z,7.53
2023-04-14T06:19:57.941Z,7.78
2023-04-14T06:22:31.272Z,7.05
2023-04-14T06:25:01.704Z,6.25
2023-04-14T06:27:31.768Z,6.03
2023-04-14T06:30:03.911Z,5.70
2023-04-14T06:32:34.526Z,6.97
2023-04-14T06:35:04.394Z,3.95
2023-04-14T06:37:34.288Z,5.25
2023-04-14T06:40:04.407Z,7.95
2023-04-14T06:42:34.073Z,8.63
2023-04-14T06:45:03.782Z,8.50
2023-04-14T06:47:33.517Z,6.90
2023-04-14T06:50:05.821Z,7.20
2023-04-14T06:52:39.385Z,10.10
2023-04-14T06:55:10.160Z,6.13
2023-04-14T06:57:39.863Z,7.43
2023-04-14T07:00:12.209Z,9.00
2023-04-14T07:02:43.135Z,11.27
2023-04-14T07:05:15.246Z,11.10
2023-04-14T07:07:45.957Z,7.32
2023-04-14T07:10:15.766Z,9.75
2023-04-14T07:12:45.489Z,8.45
2023-04-14T07:15:15.981Z,10.57
2023-04-14T07:17:45.702Z,12.77
2023-04-14T07:20:17.333Z,10.05
2023-04-14T07:22:47.217Z,9.52
2023-04-14T07:25:17.019Z,10.20
2023-04-14T07:27:56.480Z,7.90
2023-04-14T07:30:33.321Z,9.63
2023-04-14T07:33:06.571Z,9.68
2023-04-14T07:35:36.939Z,10.27
2023-04-14T07:38:06.635Z,11.35
2023-04-14T07:40:40.136Z,9.70
2023-04-14T07:43:13.148Z,10.38
2023-04-14T07:45:42.888Z,7.95
2023-04-14T07:48:17.256Z,11.23
2023-04-14T07:50:47.792Z,9.30
2023-04-14T07:53:17.846Z,9.52
2023-04-14T07:55:47.527Z,11.63
2023-04-14T07:58:21.627Z,11.25
2023-04-14T08:00:53.516Z,12.05
2023-04-14T08:03:24.519Z,10.45
2023-04-14T08:05:55.113Z,10.20
2023-04-14T08:08:25.144Z,10.73
2023-04-14T08:10:56.506Z,9.23
2023-04-14T08:13:29.047Z,9.60
2023-04-14T08:15:59.395Z,11.23
2023-04-14T08:18:33.391Z,12.43
2023-04-14T08:21:03.080Z,11.75
2023-04-14T08:23:32.894Z,10.52
2023-04-14T08:26:02.626Z,10.48
2023-04-14T08:28:35.338Z,10.35
2023-04-14T08:31:05.015Z,11.80
2023-04-14T08:33:35.833Z,12.73
2023-04-14T08:36:08.298Z,10.77
2023-04-14T08:38:38.180Z,14.27
2023-04-14T08:41:12.677Z,10.73
2023-04-14T08:43:42.567Z,10.32
2023-04-14T08:46:16.119Z,12.30
2023-04-14T08:48:46.507Z,11.05
2023-04-14T08:51:25.097Z,11.57
2023-04-14T08:53:54.781Z,11.48
2023-04-14T08:56:25.273Z,9.25
2023-04-14T08:58:55.664Z,10.18
2023-04-14T09:01:25.815Z,10.75
2023-04-14T09:03:57.877Z,10.65
2023-04-14T09:06:29.972Z,11.60
2023-04-14T09:09:06.196Z,10.75
2023-04-14T09:11:36.652Z,12.48
2023-04-14T09:14:06.680Z,10.82
2023-04-14T09:16:36.370Z,10.75
2023-04-14T09:19:07.447Z,12.88
2023-04-14T09:21:53.979Z,12.13
2023-04-14T09:24:32.650Z,12.20
2023-04-14T09:27:09.120Z,12.85
2023-04-14T09:29:41.446Z,13.90
2023-04-14T09:32:17.657Z,10.25
2023-04-14T09:34:57.764Z,11.60
2023-04-14T09:37:28.506Z,11.23
2023-04-14T09:40:05.503Z,15.05
2023-04-14T09:42:42.871Z,11.43
2023-04-14T09:45:16.748Z,12.18
2023-04-14T09:47:46.873Z,10.05
2023-04-14T09:50:17.413Z,12.68
2023-04-14T09:52:48.416Z,13.73
2023-04-14T09:55:18.712Z,10.52
2023-04-14T09:57:54.129Z,10.45
2023-04-14T10:02:58.475Z,9.35
2023-04-14T10:05:33.765Z,10.15
2023-04-14T10:08:05.482Z,16.38
2023-04-14T10:10:35.647Z,12.60
2023-04-14T10:13:05.313Z,10.35
2023-04-14T10:15:35.427Z,10.93
2023-04-14T10:18:05.518Z,10.27
2023-04-14T10:20:35.312Z,9.02
2023-04-14T10:23:08.320Z,9.80
2023-04-14T10:25:40.863Z,9.20
2023-04-14T10:28:11.194Z,12.52
2023-04-14T10:30:44.738Z,10.95
2023-04-14T10:33:14.434Z,12.20
2023-04-14T10:35:48.327Z,11.13
2023-04-14T10:38:23.656Z,9.27
2023-04-14T10:40:59.722Z,10.07
2023-04-14T10:43:32.444Z,9.98
2023-04-14T10:46:03.466Z,9.10
2023-04-14T10:48:40.703Z,10.63
2023-04-14T10:51:11.380Z,10.88
2023-04-14T10:53:43.139Z,9.80
2023-04-14T10:56:12.883Z,12.30
2023-04-14T10:58:43.356Z,12.45
2023-04-14T11:01:27.798Z,12.40
2023-04-14T11:04:00.480Z,10.27
2023-04-14T11:07:14.027Z,10.80
2023-04-14T11:09:43.880Z,10.18
2023-04-14T11:12:33.036Z,13.73
2023-04-14T11:15:06.502Z,14.48
2023-04-14T11:17:42.433Z,13.48
2023-04-14T11:20:19.861Z,9.90
2023-04-14T11:22:51.706Z,13.75
2023-04-14T11:25:24.788Z,12.95
2023-04-14T11:27:55.555Z,11.32
2023-04-14T11:30:25.237Z,10.27
2023-04-14T11:32:58.229Z,12.13
2023-04-14T11:35:29.073Z,11.18
2023-04-14T11:37:59.815Z,12.35
2023-04-14T11:40:30.046Z,13.57
2023-04-14T11:43:03.732Z,11.05
2023-04-14T11:45:34.711Z,13.55
2023-04-14T11:48:08.377Z,12.68
2023-04-14T11:50:40.947Z,12.38
2023-04-14T11:53:23.345Z,12.45
2023-04-14T11:55:57.021Z,11.98
2023-04-14T11:58:30.364Z,11.85
2023-04-14T12:01:00.408Z,13.77
2023-04-14T12:03:31.581Z,10.73
2023-04-14T12:06:03.790Z,12.50
2023-04-14T12:08:35.329Z,11.02
2023-04-14T12:11:18.082Z,12.57
2023-04-14T12:13:49.047Z,11.45
2023-04-14T12:16:19.196Z,16.67
2023-04-14T12:18:49.925Z,12.15
2023-04-14T12:21:42.876Z,12.25
2023-04-14T12:24:13.432Z,15.10
2023-04-14T12:26:43.646Z,9.98
2023-04-14T12:29:16.531Z,12.63
2023-04-14T12:31:47.159Z,10.85
2023-04-14T12:34:18.298Z,12.95
2023-04-14T12:36:54.330Z,11.68
2023-04-14T12:39:24.393Z,13.25
2023-04-14T12:41:54.099Z,12.57
2023-04-14T12:44:25.932Z,12.05
2023-04-14T12:46:57.482Z,13.07
2023-04-14T12:49:40.386Z,10.38
2023-04-14T12:52:10.758Z,14.23
2023-04-14T12:54:52.128Z,13.73
2023-04-14T12:57:24.519Z,17.38
2023-04-14T12:59:54.640Z,13.57
2023-04-14T13:02:25.215Z,13.73
2023-04-14T13:04:54.971Z,13.95
2023-04-14T13:07:28.310Z,13.68
2023-04-14T13:09:59.620Z,13.20
2023-04-14T13:12:29.694Z,15.80
2023-04-14T13:14:59.377Z,15.05
2023-04-14T13:17:29.981Z,12.25
2023-04-14T13:20:00.358Z,12.52
2023-04-14T13:22:30.460Z,13.38
2023-04-14T13:25:02.380Z,15.95
2023-04-14T13:27:32.989Z,14.75
2023-04-14T13:30:02.676Z,13.70
2023-04-14T13:32:32.512Z,15.13
2023-04-14T13:35:03.440Z,12.80
2023-04-14T13:37:33.125Z,14.30
2023-04-14T13:40:03.453Z,16.23
2023-04-14T13:42:33.367Z,11.07
2023-04-14T13:45:04.197Z,14.27
2023-04-14T13:47:36.514Z,12.40
2023-04-14T13:50:07.071Z,10.88
2023-04-14T13:52:38.036Z,14.13
2023-04-14T13:55:08.061Z,14.07
2023-04-14T13:57:38.472Z,13.27
2023-04-14T14:00:09.832Z,11.43
2023-04-14T14:02:42.882Z,13.63
2023-04-14T14:05:13.359Z,17.35
2023-04-14T14:07:43.761Z,14.23
2023-04-14T14:10:14.305Z,13.43
2023-04-14T14:12:44.008Z,13.70
2023-04-14T14:15:14.444Z,17.02
2023-04-14T14:17:44.059Z,15.50
2023-04-14T14:20:14.587Z,16.58
2023-04-14T14:22:44.380Z,11.55
2023-04-14T14:25:20.553Z,14.93
2023-04-14T14:27:54.283Z,14.43
2023-04-14T14:30:23.979Z,12.20
2023-04-14T14:32:54.531Z,11.50
2023-04-14T14:35:24.957Z,13.10
2023-04-14T14:37:54.640Z,14.80
2023-04-14T14:40:24.427Z,14.52
2023-04-14T14:42:54.844Z,14.10
2023-04-14T14:45:27.547Z,15.40
2023-04-14T14:48:02.120Z,12.80
2023-04-14T14:50:32.377Z,16.45
2023-04-14T14:53:05.716Z,13.23
2023-04-14T14:55:35.939Z,14.80
2023-04-14T14:58:08.784Z,14.70
2023-04-14T15:00:39.519Z,13.98
2023-04-14T15:03:09.577Z,15.00
2023-04-14T15:05:40.143Z,14.18
2023-04-14T15:08:10.030Z,13.80
2023-04-14T15:10:39.741Z,14.15
2023-04-14T15:13:09.831Z,16.63
2023-04-14T15:15:42.990Z,14.95
2023-04-14T15:18:12.907Z,12.15
2023-04-14T15:20:43.847Z,13.88
2023-04-14T15:23:14.352Z,12.70
2023-04-14T15:25:44.053Z,17.38
2023-04-14T15:28:14.517Z,14.95
2023-04-14T15:30:44.865Z,12.63
2023-04-14T15:33:15.172Z,15.10
2023-04-14T15:35:45.549Z,11.65
2023-04-14T15:38:15.228Z,10.18
2023-04-14T15:40:44.944Z,13.38
2023-04-14T15:43:14.653Z,13.00
2023-04-14T15:45:45.322Z,10.07
2023-04-14T15:48:15.066Z,12.90
2023-04-14T15:50:45.799Z,12.88
2023-04-14T15:53:15.838Z,11.00
2023-04-14T15:55:46.036Z,14.65
2023-04-14T15:58:16.690Z,11.07
2023-04-14T16:00:46.873Z,11.93
2023-04-14T16:03:17.731Z,12.57
2023-04-14T16:05:48.399Z,12.27
2023-04-14T16:08:21.672Z,15.30
2023-04-14T16:10:51.983Z,13.88
2023-04-14T16:13:22.317Z,11.10
2023-04-14T16:15:51.982Z,13.23
2023-04-14T16:18:21.640Z,13.10
2023-04-14T16:20:53.508Z,15.55
2023-04-14T16:23:23.525Z,12.00
2023-04-14T16:25:53.208Z,15.05
2023-04-14T16:28:24.550Z,15.27
2023-04-14T16:30:55.252Z,14.55
2023-04-14T16:33:26.146Z,12.43
2023-04-14T16:36:00.733Z,19.98
2023-04-14T16:38:31.060Z,15.43
2023-04-14T16:41:00.880Z,12.20
2023-04-14T16:43:31.350Z,13.50
2023-04-14T16:46:05.660Z,13.15
2023-04-14T16:48:39.226Z,15.10
2023-04-14T16:51:12.777Z,13.32
2023-04-14T16:53:43.031Z,11.85
2023-04-14T16:56:16.231Z,18.95
2023-04-14T16:58:46.843Z,13.88
2023-04-14T17:01:17.021Z,15.35
2023-04-14T17:03:46.986Z,14.32
2023-04-14T17:06:17.953Z,14.75
2023-04-14T17:08:49.107Z,13.52
2023-04-14T17:11:19.393Z,13.23
2023-04-14T17:13:53.903Z,13.18
2023-04-14T17:16:24.268Z,15.73
2023-04-14T17:18:59.772Z,12.15
2023-04-14T17:23:58.406Z,13.80
2023-04-14T17:26:28.602Z,12.75
2023-04-14T17:28:58.234Z,14.27
2023-04-14T17:31:28.769Z,12.35
2023-04-14T17:33:58.554Z,12.75
2023-04-14T17:36:28.766Z,14.00
2023-04-14T17:38:59.121Z,16.08
2023-04-14T17:41:30.149Z,13.90
2023-04-14T17:44:03.469Z,14.55
2023-04-14T17:46:36.832Z,16.50
2023-04-14T17:49:06.526Z,10.15
2023-04-14T17:51:36.860Z,12.48
2023-04-14T17:54:09.228Z,12.25
2023-04-14T17:56:38.984Z,15.02
2023-04-14T17:59:09.073Z,14.45
2023-04-14T18:01:39.847Z,12.85
2023-04-14T18:04:10.422Z,14.55
2023-04-14T18:06:43.200Z,12.82
2023-04-14T18:09:14.542Z,15.18
2023-04-14T18:11:46.005Z,12.10
2023-04-14T18:14:17.952Z,16.55
2023-04-14T18:16:48.648Z,12.68
2023-04-14T18:19:19.435Z,15.25
2023-04-14T18:21:49.847Z,14.07
2023-04-14T18:26:57.166Z,10.98
2023-04-14T18:29:27.324Z,16.98
2023-04-14T18:31:58.109Z,12.27
2023-04-14T18:34:27.842Z,12.40
2023-04-14T18:36:57.956Z,13.57
2023-04-14T18:39:27.970Z,13.38
2023-04-14T18:41:58.276Z,14.70
2023-04-14T18:44:28.555Z,16.08
2023-04-14T18:46:59.268Z,13.30
2023-04-14T18:49:29.846Z,15.57
2023-04-14T18:52:00.301Z,14.82
2023-04-14T18:54:30.105Z,12.40
2023-04-14T18:56:59.811Z,14.80
2023-04-14T18:59:33.312Z,12.73
2023-04-14T19:02:06.160Z,13.95
2023-04-14T19:04:36.042Z,15.25
2023-04-14T19:07:05.680Z,11.90
2023-04-14T19:09:37.627Z,15.88
2023-04-14T19:12:15.554Z,10.57
2023-04-14T19:14:55.636Z,12.45
2023-04-14T19:17:25.495Z,11.07
2023-04-14T19:19:56.505Z,12.63
2023-04-14T19:22:27.229Z,16.77
2023-04-14T19:24:57.427Z,10.95
2023-04-14T19:27:27.080Z,12.73
2023-04-14T19:29:58.572Z,11.27
2023-04-14T19:32:28.213Z,15.18
2023-04-14T19:34:57.989Z,14.32
2023-04-14T19:37:28.146Z,12.15
2023-04-14T19:39:58.791Z,10.55
2023-04-14T19:42:28.827Z,13.27
2023-04-14T19:45:02.409Z,11.75
2023-04-14T19:47:32.131Z,13.70
2023-04-14T19:50:02.618Z,11.45
2023-04-14T19:52:32.312Z,14.93
2023-04-14T19:55:01.976Z,13.18
2023-04-14T19:57:31.675Z,13.68
2023-04-14T20:00:01.385Z,13.40
2023-04-14T20:02:31.446Z,13.70
2023-04-14T20:05:01.334Z,12.73
2023-04-14T20:07:31.896Z,15.73
2023-04-14T20:10:02.952Z,15.73
2023-04-14T20:12:33.367Z,12.27
2023-04-14T20:15:03.715Z,16.52
2023-04-14T20:17:33.460Z,15.65
2023-04-14T20:20:08.561Z,12.70
2023-04-14T20:22:41.463Z,11.85
2023-04-14T20:25:11.990Z,15.65
2023-04-14T20:27:42.518Z,12.05
2023-04-14T20:30:14.449Z,15.10
2023-04-14T20:32:44.271Z,17.23
2023-04-14T20:35:13.988Z,14.65
2023-04-14T20:37:43.818Z,17.20
2023-04-14T20:40:13.702Z,15.32
2023-04-14T20:42:44.404Z,13.02
2023-04-14T20:45:15.071Z,13.32
2023-04-14T20:47:44.699Z,15.10
2023-04-14T20:50:17.048Z,15.15
2023-04-14T20:52:46.956Z,13.45
2023-04-14T20:55:17.292Z,16.13
2023-04-14T20:57:50.822Z,12.13
2023-04-14T21:00:23.193Z,11.93
2023-04-14T21:02:56.653Z,12.80
2023-04-14T21:05:27.816Z,15.18
2023-04-14T21:07:58.662Z,15.40
2023-04-14T21:10:29.524Z,16.52
2023-04-14T21:15:41.418Z,14.82
2023-04-14T21:15:56.819Z,15.60
2023-04-14T21:18:27.610Z,16.17
2023-04-14T21:20:58.587Z,14.35
2023-04-14T21:23:31.184Z,15.55
2023-04-14T21:26:05.865Z,12.93
2023-04-14T21:28:36.984Z,12.97
2023-04-14T21:31:07.534Z,11.57
2023-04-14T21:33:38.099Z,17.20
2023-04-14T21:36:12.285Z,14.68
2023-04-14T21:38:42.856Z,17.08
2023-04-14T21:41:12.607Z,16.00
2023-04-14T21:43:42.677Z,12.60
2023-04-14T21:46:12.421Z,13.48
2023-04-14T21:48:44.548Z,14.82
2023-04-14T21:51:14.299Z,19.33
2023-04-14T21:53:45.600Z,14.48
2023-04-14T21:56:16.457Z,12.48
2023-04-14T21:58:47.417Z,18.20
2023-04-14T22:01:19.807Z,13.70
2023-04-14T22:03:49.628Z,16.30
2023-04-14T22:06:20.791Z,13.30
2023-04-14T22:08:50.443Z,15.93
2023-04-14T22:11:21.525Z,14.90
2023-04-14T22:13:51.664Z,12.50
2023-04-14T22:16:21.571Z,16.55
2023-04-14T22:18:51.271Z,18.95
2023-04-14T22:21:21.475Z,13.77
2023-04-14T22:23:51.140Z,15.68
2023-04-14T22:26:21.189Z,14.63
2023-04-14T22:28:50.874Z,13.35
2023-04-14T22:31:20.613Z,17.13
2023-04-14T22:33:50.276Z,15.88
2023-04-14T22:36:20.008Z,13.95
2023-04-14T22:38:50.730Z,15.88
2023-04-14T22:41:20.436Z,13.23
2023-04-14T22:43:50.139Z,13.93
2023-04-14T22:46:24.761Z,14.43
2023-04-14T22:48:54.440Z,16.50
2023-04-14T22:51:24.774Z,15.18
2023-04-14T22:53:59.869Z,17.48
2023-04-14T22:56:30.330Z,16.52
2023-04-14T22:59:00.468Z,16.52
2023-04-14T23:01:34.602Z,16.42
2023-04-14T23:04:04.521Z,16.77
2023-04-14T23:06:34.942Z,16.52
2023-04-14T23:09:05.466Z,15.20
2023-04-14T23:11:35.649Z,16.73
2023-04-14T23:14:08.135Z,15.70
2023-04-14T23:16:38.870Z,20.00
2023-04-14T23:19:09.186Z,13.52
2023-04-14T23:21:40.436Z,14.90
2023-04-14T23:24:10.259Z,17.33
2023-04-14T23:26:40.810Z,16.25
2023-04-14T23:29:10.472Z,16.50
2023-04-14T23:31:41.679Z,14.70
2023-04-14T23:34:14.348Z,14.25
2023-04-14T23:36:45.146Z,17.02
2023-04-14T23:39:14.796Z,18.35
2023-04-14T23:41:45.188Z,17.17
2023-04-14T23:44:15.600Z,13.73
2023-04-14T23:46:45.388Z,15.05
2023-04-14T23:49:23.742Z,12.20
2023-04-14T23:51:54.587Z,16.13
2023-04-14T23:54:24.216Z,15.07
2023-04-14T23:56:54.320Z,14.23
2023-04-14T23:59:24.486Z,13.70
